createdAt,value
2022-12-14T00:01:24.817Z,97186.56
2022-12-14T00:03:52.818Z,97180.25
2022-12-14T00:06:22.242Z,97174.31
2022-12-14T00:08:50.933Z,97171.50
2022-12-14T00:11:19.761Z,97180.97
2022-12-14T00:13:48.835Z,97174.59
2022-12-14T00:16:18.124Z,97172.28
2022-12-14T00:18:48.625Z,97161.31
2022-12-14T00:21:15.109Z,97167.28
2022-12-14T00:23:43.227Z,97161.91
2022-12-14T00:26:18.070Z,97158.94
2022-12-14T00:28:45.877Z,97160.03
2022-12-14T00:31:12.950Z,97148.25
2022-12-14T00:33:40.444Z,97137.72
2022-12-14T00:36:09.745Z,97135.16
2022-12-14T00:38:37.291Z,97136.03
2022-12-14T00:41:04.994Z,97123.97
2022-12-14T00:43:32.059Z,97110.28
2022-12-14T00:45:58.644Z,97121.00
2022-12-14T00:48:26.508Z,97130.69
2022-12-14T00:50:54.909Z,97125.25
2022-12-14T00:53:22.354Z,97127.38
2022-12-14T00:55:50.708Z,97115.28
2022-12-14T00:58:22.295Z,97113.19
2022-12-14T01:00:59.235Z,97114.06
2022-12-14T01:03:26.090Z,97116.97
2022-12-14T01:05:52.942Z,97115.84
2022-12-14T01:08:20.157Z,97115.22
2022-12-14T01:10:46.636Z,97125.31
2022-12-14T01:13:13.083Z,97134.06
2022-12-14T01:15:39.638Z,97125.28
2022-12-14T01:18:06.123Z,97122.88
2022-12-14T01:20:32.684Z,97114.56
2022-12-14T01:22:59.287Z,97117.81
2022-12-14T01:25:26.307Z,97119.31
2022-12-14T01:27:52.820Z,97116.22
2022-12-14T01:30:19.518Z,97109.50
2022-12-14T01:32:47.113Z,97116.03
2022-12-14T01:35:13.644Z,97108.81
2022-12-14T01:37:40.107Z,97107.03
2022-12-14T01:40:07.149Z,97109.06
2022-12-14T01:42:38.123Z,97106.44
2022-12-14T01:45:05.886Z,97113.84
2022-12-14T01:47:43.776Z,97104.81
2022-12-14T01:50:35.205Z,97102.25
2022-12-14T01:53:08.593Z,97103.03
2022-12-14T01:55:42.080Z,97098.66
2022-12-14T01:58:17.088Z,97092.91
2022-12-14T02:00:44.643Z,97090.75
2022-12-14T02:03:38.896Z,97091.66
2022-12-14T02:06:10.721Z,97092.00
2022-12-14T02:08:39.345Z,97094.50
2022-12-14T02:11:05.962Z,97095.84
2022-12-14T02:13:38.867Z,97103.56
2022-12-14T02:16:05.708Z,97099.28
2022-12-14T02:18:32.852Z,97098.41
2022-12-14T02:21:18.576Z,97095.38
2022-12-14T02:23:57.161Z,97101.34
2022-12-14T02:26:57.661Z,97090.81
2022-12-14T02:29:27.140Z,97083.34
2022-12-14T02:32:21.660Z,97087.97
2022-12-14T02:35:19.118Z,97077.50
2022-12-14T02:38:07.930Z,97077.88
2022-12-14T02:41:10.398Z,97068.75
2022-12-14T02:43:36.832Z,97064.75
2022-12-14T02:46:15.572Z,97057.81
2022-12-14T02:48:50.191Z,97052.13
2022-12-14T02:51:38.228Z,97057.16
2022-12-14T02:54:13.171Z,97046.31
2022-12-14T02:56:53.065Z,97046.53
2022-12-14T02:59:20.257Z,97045.84
2022-12-14T03:01:50.320Z,97040.16
2022-12-14T03:04:18.558Z,97037.00
2022-12-14T03:06:57.794Z,97024.81
2022-12-14T03:09:27.042Z,97034.63
2022-12-14T03:12:03.231Z,97038.56
2022-12-14T03:14:35.640Z,97031.63
2022-12-14T03:17:19.018Z,97030.19
2022-12-14T03:19:58.733Z,97026.94
2022-12-14T03:22:40.201Z,97023.81
2022-12-14T03:25:12.908Z,97028.94
2022-12-14T03:27:44.630Z,97026.72
2022-12-14T03:30:27.123Z,97023.91
2022-12-14T03:33:15.921Z,97026.06
2022-12-14T03:35:49.392Z,97029.69
2022-12-14T03:38:38.885Z,97035.44
2022-12-14T03:41:18.446Z,97018.75
2022-12-14T03:44:08.467Z,97025.13
2022-12-14T03:46:52.361Z,97017.13
2022-12-14T03:49:50.085Z,97016.88
2022-12-14T03:52:28.881Z,97010.00
2022-12-14T03:55:20.766Z,97010.16
2022-12-14T03:58:22.995Z,97009.19
2022-12-14T04:01:00.445Z,96998.91
2022-12-14T04:03:54.454Z,97003.66
2022-12-14T04:06:39.600Z,96997.53
2022-12-14T04:09:27.892Z,96986.59
2022-12-14T04:12:22.075Z,96996.03
2022-12-14T04:15:15.161Z,96999.31
2022-12-14T04:18:03.247Z,96990.22
2022-12-14T04:20:44.207Z,96981.81
2022-12-14T04:23:37.173Z,96980.69
2022-12-14T04:26:09.078Z,96987.63
2022-12-14T04:29:09.599Z,96986.84
2022-12-14T04:31:39.769Z,96987.72
2022-12-14T04:34:10.112Z,96992.34
2022-12-14T04:36:45.395Z,96980.44
2022-12-14T04:39:18.477Z,96971.75
2022-12-14T04:41:49.548Z,96966.59
2022-12-14T04:44:24.369Z,96959.19
2022-12-14T04:46:54.067Z,96965.34
2022-12-14T04:49:27.195Z,96953.91
2022-12-14T04:52:14.635Z,96953.25
2022-12-14T04:54:53.333Z,96960.16
2022-12-14T04:57:25.638Z,96961.50
2022-12-14T04:59:52.496Z,96959.59
2022-12-14T05:02:34.150Z,96969.53
2022-12-14T05:05:21.887Z,96967.13
2022-12-14T05:08:06.880Z,96961.16
2022-12-14T05:10:44.083Z,96963.50
2022-12-14T05:13:18.890Z,96955.28
2022-12-14T05:15:50.169Z,96958.03
2022-12-14T05:18:17.421Z,96955.00
2022-12-14T05:20:43.882Z,96973.22
2022-12-14T05:23:10.314Z,96982.44
2022-12-14T05:25:36.774Z,96985.63
2022-12-14T05:28:03.505Z,96988.09
2022-12-14T05:30:30.427Z,96971.25
2022-12-14T05:32:57.464Z,96956.88
2022-12-14T05:35:23.977Z,96945.53
2022-12-14T05:37:50.608Z,96924.78
2022-12-14T05:40:17.164Z,96930.25
2022-12-14T05:42:46.042Z,96928.97
2022-12-14T05:45:15.394Z,96928.06
2022-12-14T05:47:41.860Z,96919.75
2022-12-14T05:50:09.093Z,96910.56
2022-12-14T05:52:35.599Z,96918.44
2022-12-14T05:55:04.469Z,96908.84
2022-12-14T05:57:31.557Z,96912.56
2022-12-14T05:59:58.052Z,96896.78
2022-12-14T06:02:24.689Z,96894.03
2022-12-14T06:04:51.315Z,96885.03
2022-12-14T06:07:20.625Z,96882.91
2022-12-14T06:09:49.534Z,96868.78
2022-12-14T06:12:16.052Z,96868.50
2022-12-14T06:14:42.560Z,96859.44
2022-12-14T06:17:09.098Z,96853.97
2022-12-14T06:19:35.569Z,96851.91
2022-12-14T06:22:02.015Z,96846.53
2022-12-14T06:24:28.474Z,96841.69
2022-12-14T06:26:55.124Z,96834.28
2022-12-14T06:29:21.722Z,96824.19
2022-12-14T06:31:49.154Z,96829.06
2022-12-14T06:34:17.570Z,96826.25
2022-12-14T06:36:44.282Z,96832.06
2022-12-14T06:39:13.172Z,96840.53
2022-12-14T06:41:40.691Z,96850.72
2022-12-14T06:44:11.046Z,96855.28
2022-12-14T06:46:38.834Z,96860.69
2022-12-14T06:49:06.384Z,96859.50
2022-12-14T06:51:39.348Z,96860.69
2022-12-14T06:54:06.596Z,96860.16
2022-12-14T06:56:33.221Z,96859.69
2022-12-14T06:58:59.763Z,96848.47
2022-12-14T07:01:26.453Z,96854.31
2022-12-14T07:03:55.816Z,96860.09
2022-12-14T07:06:24.509Z,96846.13
2022-12-14T07:08:54.473Z,96835.78
2022-12-14T07:11:21.719Z,96839.75
2022-12-14T07:13:49.166Z,96838.13
2022-12-14T07:16:24.699Z,96831.81
2022-12-14T07:18:52.400Z,96831.88
2022-12-14T07:21:20.574Z,96850.81
2022-12-14T07:23:48.224Z,96845.78
2022-12-14T07:26:21.532Z,96853.47
2022-12-14T07:28:48.814Z,96855.72
2022-12-14T07:31:21.895Z,96857.69
2022-12-14T07:33:49.230Z,96852.16
2022-12-14T07:36:18.219Z,96850.09
2022-12-14T07:38:46.561Z,96840.72
2022-12-14T07:41:22.076Z,96839.91
2022-12-14T07:43:49.936Z,96845.31
2022-12-14T07:46:22.241Z,96844.13
2022-12-14T07:48:50.916Z,96846.84
2022-12-14T07:51:20.918Z,96844.59
2022-12-14T07:53:47.884Z,96838.34
2022-12-14T07:56:19.913Z,96843.88
2022-12-14T07:58:46.754Z,96840.94
2022-12-14T08:01:25.953Z,96838.22
2022-12-14T08:03:55.835Z,96839.63
2022-12-14T08:06:24.199Z,96850.41
2022-12-14T08:08:51.748Z,96846.34
2022-12-14T08:11:18.810Z,96842.97
2022-12-14T08:13:46.809Z,96847.31
2022-12-14T08:16:15.609Z,96862.06
2022-12-14T08:18:43.228Z,96858.63
2022-12-14T08:21:12.522Z,96862.78
2022-12-14T08:23:39.135Z,96855.53
2022-12-14T08:26:06.521Z,96854.81
2022-12-14T08:28:34.516Z,96838.47
2022-12-14T08:31:06.634Z,96835.94
2022-12-14T08:33:35.395Z,96851.94
2022-12-14T08:36:10.134Z,96854.19
2022-12-14T08:38:37.460Z,96842.41
2022-12-14T08:41:12.050Z,96837.34
2022-12-14T08:43:39.292Z,96840.44
2022-12-14T08:46:06.845Z,96833.50
2022-12-14T08:48:33.391Z,96833.38
2022-12-14T08:51:08.387Z,96838.25
2022-12-14T08:53:36.315Z,96835.94
2022-12-14T08:56:08.334Z,96833.66
2022-12-14T08:58:36.327Z,96833.69
2022-12-14T09:01:04.652Z,96842.91
2022-12-14T09:03:34.076Z,96842.25
2022-12-14T09:06:08.955Z,96843.63
2022-12-14T09:08:36.028Z,96852.03
2022-12-14T09:11:04.445Z,96852.59
2022-12-14T09:13:32.258Z,96842.66
2022-12-14T09:16:01.607Z,96828.44
2022-12-14T09:18:28.971Z,96828.06
2022-12-14T09:20:56.105Z,96829.28
2022-12-14T09:23:24.500Z,96833.53
2022-12-14T09:26:07.524Z,96834.50
2022-12-14T09:28:37.331Z,96835.00
2022-12-14T09:31:07.409Z,96841.09
2022-12-14T09:33:34.210Z,96846.00
2022-12-14T09:36:06.447Z,96849.94
2022-12-14T09:38:35.806Z,96853.38
2022-12-14T09:41:07.446Z,96848.09
2022-12-14T09:43:39.970Z,96844.84
2022-12-14T09:46:25.116Z,96845.19
2022-12-14T09:48:53.090Z,96852.69
2022-12-14T09:51:22.564Z,96848.66
2022-12-14T09:54:02.732Z,96848.56
2022-12-14T09:56:29.527Z,96851.75
2022-12-14T09:59:01.876Z,96850.56
2022-12-14T10:02:13.891Z,96851.13
2022-12-14T10:04:55.415Z,96852.03
2022-12-14T10:07:41.699Z,96842.25
2022-12-14T10:10:24.049Z,96836.81
2022-12-14T10:13:13.230Z,96836.59
2022-12-14T10:15:42.415Z,96832.59
2022-12-14T10:18:57.813Z,96839.81
2022-12-14T10:21:23.467Z,96842.81
2022-12-14T10:24:03.411Z,96852.84
2022-12-14T10:26:41.121Z,96848.78
2022-12-14T10:29:12.888Z,96855.75
2022-12-14T10:32:17.476Z,96870.56
2022-12-14T10:34:44.110Z,96861.34
2022-12-14T10:37:30.359Z,96856.66
2022-12-14T10:40:00.222Z,96863.28
2022-12-14T10:43:15.199Z,96853.72
2022-12-14T10:46:10.110Z,96851.50
2022-12-14T10:48:49.024Z,96863.34
2022-12-14T10:51:37.571Z,96869.59
2022-12-14T10:54:22.616Z,96866.78
2022-12-14T10:56:50.606Z,96868.44
2022-12-14T10:59:33.611Z,96868.72
2022-12-14T11:02:14.124Z,96869.59
2022-12-14T11:04:49.924Z,96847.66
2022-12-14T11:07:18.704Z,96847.97
2022-12-14T11:09:45.812Z,96847.41
2022-12-14T11:12:26.899Z,96844.41
2022-12-14T11:15:00.679Z,96852.50
2022-12-14T11:17:35.546Z,96841.75
2022-12-14T11:20:19.689Z,96843.66
2022-12-14T11:22:55.692Z,96840.94
2022-12-14T11:25:33.570Z,96846.06
2022-12-14T11:28:05.661Z,96836.56
2022-12-14T11:30:32.315Z,96839.81
2022-12-14T11:32:58.942Z,96836.25
2022-12-14T11:35:25.540Z,96832.84
2022-12-14T11:37:59.423Z,96838.00
2022-12-14T11:40:27.334Z,96839.50
2022-12-14T11:43:03.107Z,96841.53
2022-12-14T11:45:32.562Z,96836.03
2022-12-14T11:48:15.938Z,96838.59
2022-12-14T11:50:44.559Z,96833.25
2022-12-14T11:53:16.229Z,96831.63
2022-12-14T11:56:04.734Z,96835.69
2022-12-14T11:58:46.174Z,96836.31
2022-12-14T12:01:18.549Z,96835.22
2022-12-14T12:03:49.093Z,96832.13
2022-12-14T12:06:22.464Z,96832.47
2022-12-14T12:08:56.091Z,96826.63
2022-12-14T12:11:26.391Z,96828.09
2022-12-14T12:13:59.307Z,96831.78
2022-12-14T12:16:28.115Z,96830.34
2022-12-14T12:19:05.216Z,96826.16
2022-12-14T12:21:40.217Z,96832.75
2022-12-14T12:24:09.380Z,96832.09
2022-12-14T12:26:41.320Z,96829.19
2022-12-14T12:29:31.581Z,96844.28
2022-12-14T12:32:00.772Z,96838.59
2022-12-14T12:34:44.667Z,96835.31
2022-12-14T12:37:27.596Z,96840.75
2022-12-14T12:40:00.544Z,96849.34
2022-12-14T12:42:34.776Z,96848.53
2022-12-14T12:45:12.842Z,96843.88
2022-12-14T12:47:48.494Z,96846.84
2022-12-14T12:50:19.374Z,96851.16
2022-12-14T12:53:05.365Z,96860.69
2022-12-14T12:55:36.756Z,96854.41
2022-12-14T12:58:09.425Z,96857.84
2022-12-14T13:00:38.203Z,96860.44
2022-12-14T13:03:15.860Z,96854.94
2022-12-14T13:05:46.647Z,96863.53
2022-12-14T13:08:23.475Z,96872.91
2022-12-14T13:13:45.212Z,96864.03
2022-12-14T13:16:24.620Z,96868.41
2022-12-14T13:19:04.797Z,96873.91
2022-12-14T13:21:47.905Z,96873.72
2022-12-14T13:24:19.130Z,96868.88
2022-12-14T13:27:12.318Z,96879.25
2022-12-14T13:29:50.543Z,96874.38
2022-12-14T13:32:37.934Z,96885.03
2022-12-14T13:35:29.198Z,96880.53
2022-12-14T13:38:01.818Z,96886.03
2022-12-14T13:40:56.901Z,96889.88
2022-12-14T13:44:14.935Z,96894.34
2022-12-14T13:46:41.932Z,96892.91
2022-12-14T13:49:19.361Z,96891.31
2022-12-14T13:51:50.087Z,96890.88
2022-12-14T13:54:33.079Z,96891.97
2022-12-14T13:57:07.960Z,96903.13
2022-12-14T13:59:42.284Z,96903.78
2022-12-14T14:02:27.306Z,96910.88
2022-12-14T14:05:16.264Z,96907.28
2022-12-14T14:08:09.070Z,96916.53
2022-12-14T14:10:38.117Z,96918.97
2022-12-14T14:13:29.423Z,96926.34
2022-12-14T14:18:49.884Z,96935.19
2022-12-14T14:21:22.455Z,96938.16
2022-12-14T14:23:58.500Z,96941.00
2022-12-14T14:26:27.990Z,96942.84
2022-12-14T14:29:13.301Z,96954.31
2022-12-14T14:31:46.128Z,96945.53
2022-12-14T14:34:37.569Z,96944.41
2022-12-14T14:37:38.598Z,96946.88
2022-12-14T14:40:23.519Z,96942.53
2022-12-14T14:43:06.564Z,96933.63
2022-12-14T14:45:49.936Z,96953.91
2022-12-14T14:48:34.883Z,96965.09
2022-12-14T14:51:08.759Z,96965.44
2022-12-14T14:53:36.827Z,96974.31
2022-12-14T14:56:32.344Z,96979.72
2022-12-14T14:59:16.841Z,96987.41
2022-12-14T15:02:01.396Z,96986.84
2022-12-14T15:04:41.366Z,96996.22
2022-12-14T15:07:15.232Z,96989.16
2022-12-14T15:09:59.518Z,96989.69
2022-12-14T15:12:37.201Z,96994.66
2022-12-14T15:15:18.646Z,96991.34
2022-12-14T15:17:45.783Z,96996.41
2022-12-14T15:20:40.044Z,96987.19
2022-12-14T15:23:07.146Z,96992.75
2022-12-14T15:25:33.757Z,96994.56
2022-12-14T15:28:10.216Z,97005.81
2022-12-14T15:30:36.861Z,97009.78
2022-12-14T15:33:24.975Z,97008.53
2022-12-14T15:35:51.555Z,97001.28
2022-12-14T15:38:22.692Z,97014.81
2022-12-14T15:41:00.651Z,97016.75
2022-12-14T15:43:28.080Z,97025.25
2022-12-14T15:46:04.040Z,97036.69
2022-12-14T15:48:34.292Z,97035.19
2022-12-14T15:51:04.365Z,97034.28
2022-12-14T15:53:37.643Z,97040.25
2022-12-14T15:56:18.143Z,97038.34
2022-12-14T15:58:45.156Z,97043.06
2022-12-14T16:01:18.723Z,97044.09
2022-12-14T16:03:58.760Z,97051.97
2022-12-14T16:06:28.890Z,97056.28
2022-12-14T16:09:18.294Z,97051.63
2022-12-14T16:11:48.205Z,97062.53
2022-12-14T16:14:29.828Z,97061.91
2022-12-14T16:16:56.649Z,97056.75
2022-12-14T16:19:31.199Z,97059.78
2022-12-14T16:22:09.869Z,97057.97
2022-12-14T16:24:38.232Z,97065.19
2022-12-14T16:27:04.898Z,97063.28
2022-12-14T16:29:33.423Z,97069.31
2022-12-14T16:32:14.590Z,97066.53
2022-12-14T16:34:47.518Z,97081.59
2022-12-14T16:37:33.911Z,97089.03
2022-12-14T16:40:00.888Z,97092.44
2022-12-14T16:42:28.860Z,97093.19
2022-12-14T16:44:55.341Z,97084.84
2022-12-14T16:47:34.079Z,97087.13
2022-12-14T16:50:01.037Z,97093.03
2022-12-14T16:52:32.839Z,97099.53
2022-12-14T16:55:20.443Z,97104.69
2022-12-14T16:57:54.132Z,97110.91
2022-12-14T17:00:29.823Z,97118.91
2022-12-14T17:02:58.082Z,97118.50
2022-12-14T17:05:26.357Z,97116.38
2022-12-14T17:07:52.812Z,97126.13
2022-12-14T17:10:25.158Z,97126.78
2022-12-14T17:12:56.173Z,97127.47
2022-12-14T17:15:24.827Z,97127.69
2022-12-14T17:17:53.759Z,97132.63
2022-12-14T17:20:24.473Z,97135.81
2022-12-14T17:22:51.384Z,97141.63
2022-12-14T17:25:18.419Z,97144.63
2022-12-14T17:27:45.179Z,97143.63
2022-12-14T17:30:18.480Z,97150.84
2022-12-14T17:32:45.456Z,97138.81
2022-12-14T17:35:20.380Z,97149.69
2022-12-14T17:37:47.309Z,97145.25
2022-12-14T17:40:16.455Z,97135.56
2022-12-14T17:42:47.251Z,97134.84
2022-12-14T17:45:30.373Z,97139.91
2022-12-14T17:47:58.027Z,97141.44
2022-12-14T17:50:28.056Z,97142.13
2022-12-14T17:52:54.655Z,97143.03
2022-12-14T17:55:26.871Z,97145.41
2022-12-14T17:57:54.353Z,97149.63
2022-12-14T18:00:43.277Z,97143.44
2022-12-14T18:03:12.049Z,97143.19
2022-12-14T18:05:46.481Z,97154.31
2022-12-14T18:08:16.259Z,97159.13
2022-12-14T18:10:43.152Z,97155.50
2022-12-14T18:13:11.367Z,97159.88
2022-12-14T18:15:41.873Z,97159.47
2022-12-14T18:18:08.801Z,97154.25
2022-12-14T18:20:36.488Z,97155.03
2022-12-14T18:23:03.035Z,97149.38
2022-12-14T18:25:35.239Z,97155.56
2022-12-14T18:28:04.264Z,97153.09
2022-12-14T18:30:38.690Z,97153.69
2022-12-14T18:33:16.559Z,97167.00
2022-12-14T18:35:44.617Z,97160.91
2022-12-14T18:38:11.838Z,97165.34
2022-12-14T18:40:39.447Z,97169.03
2022-12-14T18:43:05.971Z,97159.84
2022-12-14T18:45:34.338Z,97171.50
2022-12-14T18:48:01.606Z,97176.50
2022-12-14T18:50:28.943Z,97182.38
2022-12-14T18:52:55.786Z,97195.38
2022-12-14T18:55:28.480Z,97200.94
2022-12-14T18:57:56.688Z,97195.63
2022-12-14T19:00:25.426Z,97196.50
2022-12-14T19:02:53.089Z,97210.75
2022-12-14T19:05:25.557Z,97201.25
2022-12-14T19:07:52.798Z,97208.03
2022-12-14T19:10:22.538Z,97198.09
2022-12-14T19:12:50.249Z,97201.19
2022-12-14T19:15:20.026Z,97199.53
2022-12-14T19:17:46.951Z,97214.38
2022-12-14T19:20:15.200Z,97220.91
2022-12-14T19:22:42.208Z,97222.00
2022-12-14T19:25:09.560Z,97223.91
2022-12-14T19:28:19.964Z,97223.75
2022-12-14T19:30:24.113Z,97228.53
2022-12-14T19:32:56.130Z,97232.47
2022-12-14T19:35:24.169Z,97229.19
2022-12-14T19:37:51.400Z,97235.81
2022-12-14T19:40:18.677Z,97234.50
2022-12-14T19:42:46.804Z,97235.72
2022-12-14T19:45:14.196Z,97237.22
2022-12-14T19:47:40.747Z,97232.19
2022-12-14T19:50:07.883Z,97235.56
2022-12-14T19:52:34.649Z,97234.06
2022-12-14T19:55:01.869Z,97235.13
2022-12-14T19:57:28.498Z,97245.13
2022-12-14T19:59:56.947Z,97249.78
2022-12-14T20:02:23.652Z,97247.47
2022-12-14T20:04:50.348Z,97253.72
2022-12-14T20:07:16.997Z,97241.81
2022-12-14T20:09:43.449Z,97234.94
2022-12-14T20:12:11.236Z,97236.84
2022-12-14T20:14:42.600Z,97246.91
2022-12-14T20:17:10.825Z,97251.13
2022-12-14T20:19:39.043Z,97252.28
2022-12-14T20:22:06.912Z,97240.47
2022-12-14T20:24:33.551Z,97250.38
2022-12-14T20:27:00.082Z,97245.38
2022-12-14T20:29:27.565Z,97246.69
2022-12-14T20:31:55.276Z,97254.66
2022-12-14T20:34:22.408Z,97246.75
2022-12-14T20:36:49.344Z,97253.22
2022-12-14T20:39:15.876Z,97249.06
2022-12-14T20:41:42.393Z,97236.75
2022-12-14T20:44:11.849Z,97241.25
2022-12-14T20:46:42.767Z,97242.63
2022-12-14T20:49:16.014Z,97246.97
2022-12-14T20:51:43.792Z,97252.47
2022-12-14T20:54:13.363Z,97264.94
2022-12-14T20:56:40.242Z,97266.28
2022-12-14T20:59:08.008Z,97271.50
2022-12-14T21:01:37.244Z,97275.59
2022-12-14T21:04:04.449Z,97280.91
2022-12-14T21:06:32.974Z,97275.94
2022-12-14T21:09:05.587Z,97277.41
2022-12-14T21:11:55.991Z,97280.09
2022-12-14T21:14:24.418Z,97267.00
2022-12-14T21:16:51.393Z,97275.03
2022-12-14T21:19:18.066Z,97271.31
2022-12-14T21:21:48.257Z,97279.13
2022-12-14T21:24:37.272Z,97278.88
2022-12-14T21:27:08.294Z,97293.94
2022-12-14T21:29:34.847Z,97290.53
2022-12-14T21:32:01.547Z,97288.16
2022-12-14T21:34:29.185Z,97288.94
2022-12-14T21:36:55.662Z,97280.94
2022-12-14T21:39:22.245Z,97278.63
2022-12-14T21:42:07.150Z,97281.91
2022-12-14T21:44:36.741Z,97269.53
2022-12-14T21:47:05.891Z,97268.66
2022-12-14T21:49:32.491Z,97270.75
2022-12-14T21:51:59.037Z,97275.41
2022-12-14T21:54:26.162Z,97282.00
2022-12-14T21:57:11.233Z,97285.16
2022-12-14T21:59:40.794Z,97293.03
2022-12-14T22:02:12.812Z,97299.78
2022-12-14T22:04:40.201Z,97292.25
2022-12-14T22:07:06.780Z,97297.69
2022-12-14T22:09:33.245Z,97296.66
2022-12-14T22:11:59.734Z,97292.72
2022-12-14T22:14:26.297Z,97293.09
2022-12-14T22:16:53.523Z,97285.22
2022-12-14T22:19:24.489Z,97286.59
2022-12-14T22:21:52.272Z,97289.44
2022-12-14T22:24:20.666Z,97286.72
2022-12-14T22:26:47.222Z,97299.09
2022-12-14T22:29:15.366Z,97307.50
2022-12-14T22:31:42.080Z,97305.06
2022-12-14T22:34:15.485Z,97302.22
2022-12-14T22:36:41.948Z,97307.53
2022-12-14T22:39:09.389Z,97302.84
2022-12-14T22:41:37.443Z,97295.44
2022-12-14T22:44:04.994Z,97274.84
2022-12-14T22:46:33.171Z,97284.56
2022-12-14T22:49:00.121Z,97298.00
2022-12-14T22:51:29.100Z,97300.53
2022-12-14T22:53:56.237Z,97299.53
2022-12-14T22:56:28.565Z,97296.22
2022-12-14T22:59:18.418Z,97299.09
2022-12-14T23:01:49.737Z,97300.75
2022-12-14T23:04:17.770Z,97310.88
2022-12-14T23:06:45.015Z,97319.78
2022-12-14T23:09:30.428Z,97320.50
2022-12-14T23:12:21.325Z,97320.25
2022-12-14T23:15:07.607Z,97325.88
2022-12-14T23:17:53.587Z,97326.69
2022-12-14T23:20:38.887Z,97329.00
2022-12-14T23:23:25.634Z,97331.69
2022-12-14T23:26:10.590Z,97331.53
2022-12-14T23:28:55.350Z,97330.16
2022-12-14T23:31:40.216Z,97343.13
2022-12-14T23:34:25.110Z,97349.50
2022-12-14T23:37:12.691Z,97338.84
2022-12-14T23:40:00.078Z,97319.06
2022-12-14T23:42:44.966Z,97323.00
2022-12-14T23:45:29.633Z,97323.69
2022-12-14T23:48:15.005Z,97323.53
2022-12-14T23:51:00.208Z,97335.06
2022-12-14T23:53:45.348Z,97332.47
2022-12-14T23:56:35.341Z,97333.06
2022-12-14T23:59:22.788Z,97338.59
